Time;durP1;ratioP1;P1;durP2;ratioP2;P2;SDS_P1;SDS_P2;PMS_P1;PMS_P2;Temp;Humidity;BMP_temperature;BMP_pressure;BME280_temperature;BME280_humidity;BME280_pressure;Samples;Min_cycle;Max_cycle;Signal;HPM_P1;HPM_P2
2021/07/04 00:01:12;;;;;;;42.75;26.13;;;;;;;;;;5033194;28;20033;-46
2021/07/04 00:03:38;;;;;;;80.05;41.35;;;;;;;;;;5033193;28;20021;-46
2021/07/04 00:06:04;;;;;;;20.50;13.38;;;;;;;;;;5033275;28;20028;-46
2021/07/04 00:08:30;;;;;;;17.33;10.68;;;;;;;;;;5032844;28;20026;-47
2021/07/04 00:10:58;;;;;;;13.02;9.05;;;;;;;;;;5032957;28;20420;-47
2021/07/04 00:13:25;;;;;;;12.02;7.75;;;;;;;;;;5032946;28;20029;-47
2021/07/04 00:15:51;;;;;;;15.50;9.70;;;;;;;;;;5032871;28;20057;-47
2021/07/04 00:18:18;;;;;;;14.40;8.73;;;;;;;;;;5033288;28;20021;-46
2021/07/04 00:20:45;;;;;;;8.63;5.18;;;;;;;;;;5047989;28;20378;-44
2021/07/04 00:23:11;;;;;;;6.43;5.05;;;;;;;;;;5032976;28;20033;-44
2021/07/04 00:25:38;;;;;;;15.75;7.25;;;;;;;;;;5032850;28;20075;-46
2021/07/04 00:28:04;;;;;;;42.50;23.27;;;;;;;;;;5048191;28;20109;-48
2021/07/04 00:30:30;;;;;;;18.70;11.38;;;;;;;;;;5032852;28;20029;-47
2021/07/04 00:32:56;;;;;;;8.10;5.47;;;;;;;;;;5032923;28;20029;-47
2021/07/04 00:35:23;;;;;;;7.57;5.10;;;;;;;;;;5032902;28;20048;-47
2021/07/04 00:37:50;;;;;;;53.13;31.67;;;;;;;;;;5032893;28;20021;-44
2021/07/04 00:40:17;;;;;;;48.85;22.45;;;;;;;;;;5032728;28;20022;-46
2021/07/04 00:42:45;;;;;;;59.72;32.95;;;;;;;;;;5032828;28;20091;-47
2021/07/04 00:45:13;;;;;;;22.50;15.00;;;;;;;;;;5035580;28;20109;-46
2021/07/04 00:47:39;;;;;;;11.82;8.30;;;;;;;;;;5036738;28;20029;-46
2021/07/04 00:50:06;;;;;;;8.25;5.20;;;;;;;;;;5036529;28;20014;-48
2021/07/04 00:52:32;;;;;;;7.68;4.50;;;;;;;;;;5036569;28;20397;-45
2021/07/04 00:54:58;;;;;;;5.75;4.13;;;;;;;;;;5036274;28;20025;-46
2021/07/04 00:57:25;;;;;;;6.50;3.75;;;;;;;;;;5036360;28;20033;-47
2021/07/04 00:59:51;;;;;;;5.93;4.32;;;;;;;;;;5036305;28;20473;-47
2021/07/04 01:02:17;;;;;;;14.10;4.20;;;;;;;;;;5036331;28;20053;-46
2021/07/04 01:04:43;;;;;;;5.40;4.05;;;;;;;;;;5036175;28;20068;-48
2021/07/04 01:07:09;;;;;;;9.55;4.80;;;;;;;;;;5036192;28;20071;-48
2021/07/04 01:09:36;;;;;;;71.45;38.72;;;;;;;;;;5036145;28;20223;-47
2021/07/04 01:12:03;;;;;;;27.58;16.55;;;;;;;;;;5035941;28;20049;-44
2021/07/04 01:14:29;;;;;;;38.45;22.40;;;;;;;;;;5035961;28;20045;-45
2021/07/04 01:16:58;;;;;;;15.32;10.10;;;;;;;;;;5035956;28;20385;-46
2021/07/04 01:19:25;;;;;;;12.70;7.22;;;;;;;;;;5035827;28;20030;-47
2021/07/04 01:21:54;;;;;;;29.98;18.92;;;;;;;;;;5035932;28;20059;-48
2021/07/04 01:24:20;;;;;;;36.05;16.90;;;;;;;;;;5035878;28;20024;-48
2021/07/04 01:26:46;;;;;;;50.78;29.83;;;;;;;;;;5051042;28;20425;-46
2021/07/04 01:29:12;;;;;;;25.00;15.38;;;;;;;;;;5035760;28;20028;-47
2021/07/04 01:31:40;;;;;;;17.33;8.50;;;;;;;;;;5035853;28;20091;-44
2021/07/04 01:34:07;;;;;;;19.45;12.07;;;;;;;;;;5035715;28;20029;-45
2021/07/04 01:36:34;;;;;;;78.78;45.03;;;;;;;;;;5035570;28;20033;-47
2021/07/04 01:39:00;;;;;;;75.22;41.30;;;;;;;;;;5035701;28;20072;-44
2021/07/04 01:41:26;;;;;;;32.25;17.88;;;;;;;;;;5035481;28;20025;-48
2021/07/04 01:43:53;;;;;;;16.33;8.55;;;;;;;;;;5035360;28;20083;-47
2021/07/04 01:46:19;;;;;;;10.20;6.90;;;;;;;;;;5035431;28;20049;-48
2021/07/04 01:48:45;;;;;;;8.30;5.57;;;;;;;;;;5035519;28;20052;-47
2021/07/04 01:51:11;;;;;;;8.18;4.25;;;;;;;;;;5050369;28;20048;-47
2021/07/04 01:53:38;;;;;;;8.30;4.10;;;;;;;;;;5035275;28;20108;-48
2021/07/04 01:56:06;;;;;;;5.90;4.03;;;;;;;;;;5033853;28;20045;-47
2021/07/04 01:58:32;;;;;;;5.38;4.13;;;;;;;;;;5035343;28;20045;-45
2021/07/04 02:00:59;;;;;;;5.97;4.25;;;;;;;;;;5035231;28;20021;-46
2021/07/04 02:03:25;;;;;;;5.80;4.03;;;;;;;;;;5035177;28;20021;-47
2021/07/04 02:05:51;;;;;;;6.18;4.40;;;;;;;;;;5035185;28;20025;-46
2021/07/04 02:08:17;;;;;;;6.43;3.90;;;;;;;;;;5035202;28;20025;-43
2021/07/04 02:10:44;;;;;;;4.70;3.70;;;;;;;;;;5035258;28;20056;-47
2021/07/04 02:13:12;;;;;;;7.95;4.28;;;;;;;;;;5034789;28;20034;-45
2021/07/04 02:15:39;;;;;;;6.97;3.88;;;;;;;;;;5034704;28;20524;-47
2021/07/04 02:18:10;;;;;;;8.52;4.60;;;;;;;;;;5034807;28;20021;-46
2021/07/04 02:20:40;;;;;;;6.72;4.63;;;;;;;;;;5034784;28;20030;-46
2021/07/04 02:23:11;;;;;;;8.43;4.13;;;;;;;;;;5034814;28;20080;-46
2021/07/04 02:25:38;;;;;;;6.13;3.72;;;;;;;;;;5034914;28;20055;-47
2021/07/04 02:28:05;;;;;;;4.50;3.88;;;;;;;;;;5034932;28;20406;-46
2021/07/04 02:30:31;;;;;;;5.30;4.25;;;;;;;;;;5034684;28;20033;-48
2021/07/04 02:33:01;;;;;;;6.75;4.18;;;;;;;;;;5034642;28;20030;-47
2021/07/04 02:35:28;;;;;;;5.72;3.90;;;;;;;;;;5034463;28;20038;-46
2021/07/04 02:37:54;;;;;;;5.22;3.80;;;;;;;;;;5034411;28;20065;-46
2021/07/04 02:40:22;;;;;;;5.45;3.70;;;;;;;;;;5034571;28;20021;-47
2021/07/04 02:42:48;;;;;;;6.55;4.30;;;;;;;;;;5034305;28;20021;-47
2021/07/04 02:45:14;;;;;;;7.38;4.63;;;;;;;;;;5034440;28;20108;-45
2021/07/04 02:47:41;;;;;;;5.70;4.05;;;;;;;;;;5034643;28;20021;-43
2021/07/04 02:50:08;;;;;;;6.97;4.00;;;;;;;;;;5034360;28;20125;-47
2021/07/04 02:52:34;;;;;;;6.38;3.88;;;;;;;;;;5034613;28;20430;-45
2021/07/04 02:55:00;;;;;;;8.68;4.25;;;;;;;;;;5034484;28;20129;-47
2021/07/04 02:57:27;;;;;;;7.50;4.00;;;;;;;;;;5034124;28;20040;-46
2021/07/04 02:59:53;;;;;;;8.70;4.55;;;;;;;;;;5034024;28;20025;-43
2021/07/04 03:02:20;;;;;;;5.78;4.30;;;;;;;;;;5034142;28;20482;-47
2021/07/04 03:04:47;;;;;;;7.80;4.57;;;;;;;;;;5033967;28;20478;-43
2021/07/04 03:07:13;;;;;;;6.05;3.90;;;;;;;;;;5033697;28;20029;-46
2021/07/04 03:09:40;;;;;;;7.18;4.60;;;;;;;;;;5034167;28;20100;-45
2021/07/04 03:12:07;;;;;;;5.72;3.78;;;;;;;;;;5034000;28;20033;-47
2021/07/04 03:14:35;;;;;;;6.82;4.57;;;;;;;;;;5033571;28;20057;-46
2021/07/04 03:17:01;;;;;;;7.15;4.22;;;;;;;;;;5034127;28;20517;-47
2021/07/04 03:19:27;;;;;;;10.07;4.47;;;;;;;;;;5033901;28;20064;-47
2021/07/04 03:21:53;;;;;;;13.43;4.65;;;;;;;;;;5033734;28;20026;-44
2021/07/04 03:24:19;;;;;;;8.80;5.13;;;;;;;;;;5034007;28;20022;-47
2021/07/04 03:26:46;;;;;;;7.18;5.13;;;;;;;;;;5033641;28;20026;-46
2021/07/04 03:29:12;;;;;;;5.53;4.65;;;;;;;;;;5033694;28;20080;-47
2021/07/04 03:31:38;;;;;;;11.80;5.10;;;;;;;;;;5033789;28;20021;-46
2021/07/04 03:34:06;;;;;;;4.78;4.00;;;;;;;;;;5033693;28;20021;-43
2021/07/04 03:36:33;;;;;;;7.15;4.75;;;;;;;;;;5033693;28;20044;-42
2021/07/04 03:38:59;;;;;;;7.85;4.47;;;;;;;;;;5033457;28;20030;-46
2021/07/04 03:41:25;;;;;;;6.95;4.32;;;;;;;;;;5033758;28;20022;-45
2021/07/04 03:43:51;;;;;;;8.68;4.20;;;;;;;;;;5033349;28;20029;-47
2021/07/04 03:46:19;;;;;;;6.57;4.10;;;;;;;;;;5033608;28;20112;-47
2021/07/04 03:48:45;;;;;;;7.18;4.78;;;;;;;;;;5033730;28;20021;-43
2021/07/04 03:51:11;;;;;;;8.50;4.35;;;;;;;;;;5033375;28;20036;-47
2021/07/04 03:53:37;;;;;;;8.05;4.13;;;;;;;;;;5033316;28;20108;-46
2021/07/04 03:56:03;;;;;;;6.65;4.90;;;;;;;;;;5033228;28;20539;-43
2021/07/04 03:58:29;;;;;;;4.43;3.97;;;;;;;;;;5033330;28;20036;-45
2021/07/04 04:00:55;;;;;;;5.82;4.70;;;;;;;;;;5048774;28;20401;-43
2021/07/04 04:03:21;;;;;;;7.78;4.50;;;;;;;;;;5033593;28;20025;-47
2021/07/04 04:05:47;;;;;;;6.47;4.38;;;;;;;;;;5033305;28;20024;-43
2021/07/04 04:08:14;;;;;;;20.83;12.52;;;;;;;;;;5033230;28;20021;-42
2021/07/04 04:10:40;;;;;;;13.77;8.75;;;;;;;;;;5033630;28;20025;-44
2021/07/04 04:13:06;;;;;;;9.88;6.72;;;;;;;;;;5033105;28;20053;-42
2021/07/04 04:15:34;;;;;;;11.00;6.70;;;;;;;;;;5032920;28;20383;-44
2021/07/04 04:18:00;;;;;;;6.75;4.47;;;;;;;;;;5033114;28;20024;-42
2021/07/04 04:20:26;;;;;;;7.57;4.32;;;;;;;;;;5036398;28;20029;-43
2021/07/04 04:22:53;;;;;;;7.68;4.35;;;;;;;;;;5037364;28;20026;-44
2021/07/04 04:25:19;;;;;;;8.52;3.95;;;;;;;;;;5037366;28;20026;-45
2021/07/04 04:27:45;;;;;;;12.15;8.00;;;;;;;;;;5052293;28;20482;-44
2021/07/04 04:30:11;;;;;;;16.42;9.38;;;;;;;;;;5036995;28;20048;-43
2021/07/04 04:32:37;;;;;;;13.07;7.47;;;;;;;;;;5037191;28;20022;-44
2021/07/04 04:35:03;;;;;;;9.52;5.43;;;;;;;;;;5036770;28;20033;-45
2021/07/04 04:37:29;;;;;;;5.10;3.97;;;;;;;;;;5036925;28;20362;-46
2021/07/04 04:39:55;;;;;;;6.55;4.47;;;;;;;;;;5036957;28;20017;-45
2021/07/04 04:42:22;;;;;;;8.40;5.05;;;;;;;;;;5036795;28;20021;-46
2021/07/04 04:44:48;;;;;;;7.78;5.18;;;;;;;;;;5036608;28;20022;-46
2021/07/04 04:47:14;;;;;;;11.20;5.10;;;;;;;;;;5036605;28;20487;-46
2021/07/04 04:49:40;;;;;;;8.85;4.47;;;;;;;;;;5036703;28;20370;-45
2021/07/04 04:52:06;;;;;;;7.68;5.13;;;;;;;;;;5036506;28;20025;-47
2021/07/04 04:54:32;;;;;;;10.23;5.47;;;;;;;;;;5036408;28;20028;-48
2021/07/04 04:57:05;;;;;;;8.93;5.40;;;;;;;;;;5036743;28;20057;-43
2021/07/04 04:59:32;;;;;;;8.07;5.32;;;;;;;;;;5036458;28;20045;-44
2021/07/04 05:01:58;;;;;;;7.45;5.18;;;;;;;;;;5036337;28;20076;-43
2021/07/04 05:04:24;;;;;;;8.43;4.70;;;;;;;;;;5036434;28;20029;-47
2021/07/04 05:06:50;;;;;;;9.13;5.15;;;;;;;;;;5036924;28;20421;-46
2021/07/04 05:09:16;;;;;;;8.38;5.18;;;;;;;;;;5036209;28;20022;-47
2021/07/04 05:11:44;;;;;;;9.02;5.40;;;;;;;;;;5036322;28;20018;-47
2021/07/04 05:14:11;;;;;;;12.02;5.13;;;;;;;;;;5035750;28;20053;-47
2021/07/04 05:16:37;;;;;;;7.65;5.50;;;;;;;;;;5036090;28;20048;-46
2021/07/04 05:19:06;;;;;;;10.45;6.05;;;;;;;;;;5036339;28;20022;-47
2021/07/04 05:21:35;;;;;;;8.35;4.97;;;;;;;;;;5036002;28;20025;-43
2021/07/04 05:24:02;;;;;;;6.95;5.47;;;;;;;;;;5036216;28;20369;-47
2021/07/04 05:26:28;;;;;;;9.30;5.30;;;;;;;;;;5035996;28;20025;-46
2021/07/04 05:28:55;;;;;;;8.63;4.75;;;;;;;;;;5035887;28;20139;-46
2021/07/04 05:31:21;;;;;;;7.57;5.32;;;;;;;;;;5035625;28;20508;-45
2021/07/04 05:33:49;;;;;;;8.32;5.47;;;;;;;;;;5035870;28;20021;-45
2021/07/04 05:36:16;;;;;;;8.65;5.93;;;;;;;;;;5035840;28;20380;-46
2021/07/04 05:38:44;;;;;;;6.45;5.30;;;;;;;;;;5035579;28;20014;-44
2021/07/04 05:41:11;;;;;;;9.10;5.65;;;;;;;;;;5035930;28;20037;-45
2021/07/04 05:43:38;;;;;;;8.93;6.25;;;;;;;;;;5034418;28;20034;-45
2021/07/04 05:46:04;;;;;;;23.10;7.25;;;;;;;;;;5035853;28;20414;-47
2021/07/04 05:48:30;;;;;;;8.48;5.35;;;;;;;;;;5035735;28;20034;-46
2021/07/04 05:50:57;;;;;;;6.68;5.35;;;;;;;;;;5035473;28;20469;-45
2021/07/04 05:53:23;;;;;;;7.20;5.25;;;;;;;;;;5050779;28;20393;-47
2021/07/04 05:55:49;;;;;;;7.40;5.43;;;;;;;;;;5035598;28;20090;-47
2021/07/04 05:58:15;;;;;;;12.23;6.28;;;;;;;;;;5035492;28;20423;-48
2021/07/04 06:00:42;;;;;;;9.68;6.00;;;;;;;;;;5035322;28;20048;-44
2021/07/04 06:03:08;;;;;;;16.80;10.55;;;;;;;;;;5035301;28;20470;-46
2021/07/04 06:05:34;;;;;;;14.00;8.75;;;;;;;;;;5035238;28;20168;-44
2021/07/04 06:08:00;;;;;;;12.02;7.38;;;;;;;;;;5035193;28;20577;-46
2021/07/04 06:10:26;;;;;;;13.15;5.45;;;;;;;;;;5035179;28;20032;-43
2021/07/04 06:12:53;;;;;;;11.90;5.75;;;;;;;;;;5035145;28;20041;-46
2021/07/04 06:15:22;;;;;;;10.82;6.65;;;;;;;;;;5034782;28;20457;-47
2021/07/04 06:17:48;;;;;;;9.10;6.15;;;;;;;;;;5035004;28;20036;-47
2021/07/04 06:20:15;;;;;;;8.80;5.65;;;;;;;;;;5034985;28;20022;-46
2021/07/04 06:22:42;;;;;;;6.47;5.30;;;;;;;;;;5033717;28;20377;-45
2021/07/04 06:25:09;;;;;;;8.82;5.40;;;;;;;;;;5034920;28;20029;-43
2021/07/04 06:27:36;;;;;;;6.32;4.65;;;;;;;;;;5035034;28;20053;-47
2021/07/04 06:30:03;;;;;;;7.10;5.18;;;;;;;;;;5034722;28;20541;-44
2021/07/04 06:32:29;;;;;;;6.70;5.10;;;;;;;;;;5049701;28;20383;-44
2021/07/04 06:34:55;;;;;;;7.32;5.07;;;;;;;;;;5034455;28;20032;-45
2021/07/04 06:37:21;;;;;;;9.45;6.32;;;;;;;;;;5034576;28;20359;-46
2021/07/04 06:39:47;;;;;;;8.40;5.95;;;;;;;;;;5034709;28;20052;-44
2021/07/04 06:42:13;;;;;;;7.60;5.53;;;;;;;;;;5034357;28;20152;-44
2021/07/04 06:44:39;;;;;;;7.85;5.65;;;;;;;;;;5034290;28;20041;-46
2021/07/04 06:47:05;;;;;;;10.15;5.28;;;;;;;;;;5034465;28;20057;-46
2021/07/04 06:49:31;;;;;;;7.65;5.25;;;;;;;;;;5034478;28;20025;-46
2021/07/04 06:51:58;;;;;;;8.32;4.60;;;;;;;;;;5034306;28;20495;-45
2021/07/04 06:54:24;;;;;;;11.75;6.28;;;;;;;;;;5034275;28;20025;-46
2021/07/04 06:56:50;;;;;;;7.05;5.53;;;;;;;;;;5034300;28;20037;-46
2021/07/04 06:59:17;;;;;;;7.25;4.30;;;;;;;;;;5034309;28;20030;-46
2021/07/04 07:01:43;;;;;;;7.18;4.85;;;;;;;;;;5034236;28;20445;-46
2021/07/04 07:04:09;;;;;;;6.85;4.20;;;;;;;;;;5034219;28;20029;-45
2021/07/04 07:06:35;;;;;;;7.32;4.35;;;;;;;;;;5034587;28;20029;-45
2021/07/04 07:09:01;;;;;;;5.38;4.30;;;;;;;;;;5034095;28;20474;-46
2021/07/04 07:11:27;;;;;;;5.22;4.00;;;;;;;;;;5034053;28;20024;-45
2021/07/04 07:13:53;;;;;;;5.03;4.35;;;;;;;;;;5033644;28;20049;-45
2021/07/04 07:16:19;;;;;;;6.63;4.18;;;;;;;;;;5033879;28;20124;-43
2021/07/04 07:18:45;;;;;;;4.95;3.70;;;;;;;;;;5033931;28;20026;-45
2021/07/04 07:21:11;;;;;;;5.22;3.38;;;;;;;;;;5033810;28;20036;-46
2021/07/04 07:23:37;;;;;;;5.63;3.40;;;;;;;;;;5033710;28;20477;-46
2021/07/04 07:26:04;;;;;;;3.95;3.50;;;;;;;;;;5033770;28;20048;-45
2021/07/04 07:28:30;;;;;;;6.45;3.95;;;;;;;;;;5033645;28;20028;-45
2021/07/04 07:30:56;;;;;;;4.68;3.60;;;;;;;;;;5033644;28;20033;-46
2021/07/04 07:33:22;;;;;;;5.63;3.80;;;;;;;;;;5033701;28;20516;-46
2021/07/04 07:35:51;;;;;;;5.28;3.90;;;;;;;;;;5033569;28;20071;-46
2021/07/04 07:38:17;;;;;;;4.38;3.97;;;;;;;;;;5033358;28;20061;-47
2021/07/04 07:40:43;;;;;;;4.85;3.85;;;;;;;;;;5033494;28;20028;-44
2021/07/04 07:43:11;;;;;;;17.08;11.85;;;;;;;;;;5034087;28;20045;-47
2021/07/04 07:45:40;;;;;;;62.42;45.65;;;;;;;;;;5052765;28;20021;-45
2021/07/04 07:48:06;;;;;;;13.35;9.65;;;;;;;;;;5052799;28;20043;-41
2021/07/04 07:50:34;;;;;;;12.63;8.52;;;;;;;;;;5052844;28;20067;-42
2021/07/04 07:53:00;;;;;;;22.05;15.25;;;;;;;;;;5052723;28;20017;-45
2021/07/04 07:55:27;;;;;;;24.80;10.68;;;;;;;;;;5052577;28;20427;-44
2021/07/04 07:57:53;;;;;;;11.02;6.57;;;;;;;;;;5052678;28;20028;-43
2021/07/04 08:00:19;;;;;;;49.20;21.92;;;;;;;;;;5052528;28;20025;-45
2021/07/04 08:02:45;;;;;;;19.00;11.38;;;;;;;;;;5052751;28;20021;-44
2021/07/04 08:05:11;;;;;;;194.30;73.40;;;;;;;;;;5056649;28;20100;-45
2021/07/04 08:07:39;;;;;;;68.20;30.02;;;;;;;;;;5072942;28;20025;-42
2021/07/04 08:10:05;;;;;;;193.68;96.15;;;;;;;;;;5073250;28;20063;-46
2021/07/04 08:12:31;;;;;;;76.75;52.85;;;;;;;;;;5072857;28;20540;-45
2021/07/04 08:14:58;;;;;;;104.50;72.88;;;;;;;;;;5072683;28;20492;-45
2021/07/04 08:17:24;;;;;;;69.63;41.90;;;;;;;;;;5073275;28;20025;-45
2021/07/04 08:19:50;;;;;;;41.33;26.10;;;;;;;;;;5073049;28;20017;-47
2021/07/04 08:22:16;;;;;;;42.30;28.92;;;;;;;;;;5073490;28;20028;-46
2021/07/04 08:24:42;;;;;;;13.93;8.85;;;;;;;;;;5072994;28;20032;-42
2021/07/04 08:27:08;;;;;;;48.85;24.50;;;;;;;;;;5072887;28;20461;-42
2021/07/04 08:29:34;;;;;;;79.60;45.30;;;;;;;;;;5072820;28;20032;-46
2021/07/04 08:32:00;;;;;;;51.15;29.25;;;;;;;;;;5072978;28;20047;-44
2021/07/04 08:34:26;;;;;;;11.05;7.63;;;;;;;;;;5072857;28;20473;-46
2021/07/04 08:36:52;;;;;;;9.25;4.45;;;;;;;;;;5072419;28;20388;-44
2021/07/04 08:39:19;;;;;;;5.70;3.33;;;;;;;;;;5072867;28;20032;-45
2021/07/04 08:41:45;;;;;;;5.18;2.90;;;;;;;;;;5073056;28;20056;-44
2021/07/04 08:44:11;;;;;;;13.60;8.38;;;;;;;;;;5072931;28;20047;-44
2021/07/04 08:46:44;;;;;;;10.07;4.50;;;;;;;;;;5073103;28;20024;-44
2021/07/04 08:49:12;;;;;;;6.40;3.78;;;;;;;;;;5072772;28;20465;-44
2021/07/04 08:51:38;;;;;;;14.15;6.10;;;;;;;;;;5072809;28;20149;-45
2021/07/04 08:54:04;;;;;;;8.02;4.40;;;;;;;;;;5073011;28;20029;-46
2021/07/04 08:56:31;;;;;;;3.58;3.22;;;;;;;;;;5072710;28;20067;-45
2021/07/04 08:58:57;;;;;;;6.40;3.10;;;;;;;;;;5073132;28;20024;-46
2021/07/04 09:01:25;;;;;;;3.05;2.70;;;;;;;;;;5072740;28;20146;-46
2021/07/04 09:03:52;;;;;;;3.60;2.80;;;;;;;;;;5072765;28;20036;-46
2021/07/04 09:06:36;;;;;;;5.53;3.85;;;;;;;;;;5075383;28;20388;-44
2021/07/04 09:09:21;;;;;;;6.95;3.88;;;;;;;;;;5076321;28;20016;-45
2021/07/04 09:12:06;;;;;;;3.53;3.17;;;;;;;;;;5076396;28;20148;-45
2021/07/04 09:14:40;;;;;;;5.72;4.03;;;;;;;;;;5075810;28;20053;-43
2021/07/04 09:17:11;;;;;;;5.60;3.20;;;;;;;;;;5076567;28;20029;-45
2021/07/04 09:19:40;;;;;;;3.78;3.38;;;;;;;;;;5076360;28;20027;-43
2021/07/04 09:22:07;;;;;;;6.10;3.50;;;;;;;;;;5076249;28;20027;-45
2021/07/04 09:24:42;;;;;;;5.47;3.67;;;;;;;;;;5075842;28;20025;-42
2021/07/04 09:27:10;;;;;;;4.18;3.20;;;;;;;;;;5076018;28;20460;-46
2021/07/04 09:29:50;;;;;;;5.85;3.72;;;;;;;;;;5075939;28;20145;-44
2021/07/04 09:32:16;;;;;;;7.57;5.25;;;;;;;;;;5075895;28;20440;-46
2021/07/04 09:34:43;;;;;;;8.70;4.20;;;;;;;;;;5075690;28;20033;-46
2021/07/04 09:37:09;;;;;;;5.35;3.80;;;;;;;;;;5075765;28;20123;-46
2021/07/04 09:39:35;;;;;;;3.95;3.15;;;;;;;;;;5075697;28;20097;-46
2021/07/04 09:42:02;;;;;;;5.72;4.07;;;;;;;;;;5075653;28;20033;-43
2021/07/04 09:44:28;;;;;;;5.75;3.58;;;;;;;;;;5075858;28;20036;-44
2021/07/04 09:47:13;;;;;;;7.30;3.97;;;;;;;;;;5075470;28;20123;-44
2021/07/04 09:49:39;;;;;;;4.00;3.60;;;;;;;;;;5075680;28;20021;-43
2021/07/04 09:52:32;;;;;;;3.58;3.25;;;;;;;;;;5075382;28;20029;-43
2021/07/04 09:55:02;;;;;;;4.82;3.10;;;;;;;;;;5074106;28;20032;-47
2021/07/04 09:57:29;;;;;;;4.60;2.67;;;;;;;;;;5075669;28;20029;-46
2021/07/04 10:00:18;;;;;;;3.40;2.83;;;;;;;;;;5075254;28;20048;-46
2021/07/04 10:03:04;;;;;;;3.55;3.15;;;;;;;;;;5053303;28;20037;-44
2021/07/04 10:05:31;;;;;;;3.10;2.80;;;;;;;;;;5053126;28;20033;-45
2021/07/04 10:07:57;;;;;;;3.65;3.15;;;;;;;;;;5053085;28;20123;-45
2021/07/04 10:10:23;;;;;;;4.03;2.80;;;;;;;;;;5053078;28;20049;-46
2021/07/04 10:12:49;;;;;;;3.75;3.20;;;;;;;;;;5052948;28;20029;-45
2021/07/04 10:15:16;;;;;;;4.10;3.28;;;;;;;;;;5052828;28;20049;-45
2021/07/04 10:17:42;;;;;;;4.60;2.92;;;;;;;;;;5052024;28;20021;-43
2021/07/04 10:20:09;;;;;;;3.55;2.88;;;;;;;;;;5052744;28;20037;-45
2021/07/04 10:22:37;;;;;;;5.60;3.10;;;;;;;;;;5053001;28;20061;-46
2021/07/04 10:25:05;;;;;;;4.00;3.50;;;;;;;;;;5052936;28;20021;-47
2021/07/04 10:27:33;;;;;;;5.85;4.38;;;;;;;;;;5052750;28;20033;-43
2021/07/04 10:29:59;;;;;;;5.72;3.80;;;;;;;;;;5052636;28;20111;-46
2021/07/04 10:32:25;;;;;;;6.40;4.05;;;;;;;;;;5052763;28;20068;-47
2021/07/04 10:34:53;;;;;;;3.85;3.05;;;;;;;;;;5052770;28;20052;-46
2021/07/04 10:37:32;;;;;;;3.55;3.20;;;;;;;;;;5052598;28;20094;-47
2021/07/04 10:40:21;;;;;;;6.75;3.47;;;;;;;;;;5066044;28;20119;-44
2021/07/04 10:42:47;;;;;;;3.40;3.10;;;;;;;;;;5074410;28;20492;-44
2021/07/04 10:45:30;;;;;;;4.35;2.85;;;;;;;;;;5074315;28;20063;-45
2021/07/04 10:47:57;;;;;;;6.43;3.88;;;;;;;;;;5074583;28;20020;-43
2021/07/04 10:50:23;;;;;;;5.88;4.30;;;;;;;;;;5074328;28;20070;-47
2021/07/04 10:52:53;;;;;;;6.70;3.92;;;;;;;;;;5074354;28;20519;-46
2021/07/04 10:55:34;;;;;;;4.28;3.28;;;;;;;;;;5074154;28;20071;-43
2021/07/04 10:58:02;;;;;;;4.78;2.85;;;;;;;;;;5072900;28;20052;-45
2021/07/04 11:00:35;;;;;;;3.17;2.40;;;;;;;;;;5074266;28;20080;-47
2021/07/04 11:03:06;;;;;;;3.63;2.50;;;;;;;;;;5074146;28;20077;-46
2021/07/04 11:05:41;;;;;;;5.93;3.22;;;;;;;;;;5074258;28;20021;-45
2021/07/04 11:08:09;;;;;;;3.05;2.60;;;;;;;;;;5073951;28;20025;-43
2021/07/04 11:10:52;;;;;;;5.78;3.10;;;;;;;;;;5074171;28;20494;-45
2021/07/04 11:13:18;;;;;;;7.40;3.53;;;;;;;;;;5074058;28;20036;-46
2021/07/04 11:15:45;;;;;;;3.50;3.20;;;;;;;;;;5073679;28;20515;-46
2021/07/04 11:18:12;;;;;;;4.88;3.60;;;;;;;;;;5073939;28;20321;-46
2021/07/04 11:20:39;;;;;;;4.50;3.00;;;;;;;;;;5072477;28;20435;-43
2021/07/04 11:23:09;;;;;;;5.15;4.55;;;;;;;;;;5073717;28;20383;-43
2021/07/04 11:25:41;;;;;;;4.50;3.55;;;;;;;;;;5074020;28;20384;-43
2021/07/04 11:28:16;;;;;;;5.82;3.20;;;;;;;;;;5073642;28;20021;-45
2021/07/04 11:30:48;;;;;;;6.78;3.50;;;;;;;;;;5073583;28;20031;-47
2021/07/04 11:33:28;;;;;;;4.32;3.28;;;;;;;;;;5073786;28;20036;-46
2021/07/04 11:35:57;;;;;;;5.23;3.90;;;;;;;;;;5073544;28;20032;-46
2021/07/04 11:38:26;;;;;;;3.53;2.60;;;;;;;;;;5073550;28;20281;-46
2021/07/04 11:40:53;;;;;;;3.38;2.47;;;;;;;;;;5038620;28;20033;-42
2021/07/04 11:43:21;;;;;;;3.10;2.80;;;;;;;;;;5025504;28;20033;-43
2021/07/04 11:45:50;;;;;;;5.45;4.80;;;;;;;;;;5026369;28;21054;-42
2021/07/04 11:48:17;;;;;;;3.33;2.83;;;;;;;;;;5026132;28;21560;-43
2021/07/04 11:50:50;;;;;;;92.25;55.63;;;;;;;;;;5026341;28;20025;-42
2021/07/04 11:53:16;;;;;;;9.90;6.00;;;;;;;;;;5026103;28;20028;-42
2021/07/04 11:56:02;;;;;;;3.95;2.90;;;;;;;;;;5017907;28;20413;-43
2021/07/04 11:58:29;;;;;;;147.25;74.95;;;;;;;;;;5025995;28;20040;-43
2021/07/04 12:00:56;;;;;;;273.90;219.48;;;;;;;;;;5025690;28;20018;-44
2021/07/04 12:03:23;;;;;;;19.80;13.13;;;;;;;;;;5025892;28;20029;-42
2021/07/04 12:05:50;;;;;;;33.40;18.05;;;;;;;;;;5025990;28;20122;-42
2021/07/04 12:08:16;;;;;;;143.65;75.03;;;;;;;;;;5025678;28;20029;-45
2021/07/04 12:10:49;;;;;;;21.52;13.32;;;;;;;;;;5026063;28;20028;-42
2021/07/04 12:13:15;;;;;;;4.93;3.97;;;;;;;;;;5025716;28;20045;-42
2021/07/04 12:15:47;;;;;;;17.88;8.98;;;;;;;;;;5025752;28;20049;-42
2021/07/04 12:18:17;;;;;;;227.35;134.85;;;;;;;;;;5025700;28;20029;-42
2021/07/04 12:20:50;;;;;;;199.93;115.57;;;;;;;;;;5025711;28;20025;-46
2021/07/04 12:23:17;;;;;;;56.80;34.08;;;;;;;;;;5025700;28;20100;-42
2021/07/04 12:25:43;;;;;;;29.17;16.23;;;;;;;;;;5025917;28;20086;-44
2021/07/04 12:28:13;;;;;;;22.58;9.10;;;;;;;;;;5026046;28;20029;-46
2021/07/04 12:30:39;;;;;;;8.60;4.90;;;;;;;;;;5025666;28;20036;-48
2021/07/04 12:33:15;;;;;;;42.45;22.65;;;;;;;;;;5026006;28;20742;-44
2021/07/04 12:35:42;;;;;;;5.03;3.92;;;;;;;;;;5025540;28;20044;-44
2021/07/04 12:38:10;;;;;;;4.60;3.53;;;;;;;;;;5025575;28;20045;-42
2021/07/04 12:40:52;;;;;;;71.68;36.72;;;;;;;;;;5027899;28;20555;-42
2021/07/04 12:43:20;;;;;;;9.23;4.95;;;;;;;;;;5029568;28;20040;-45
2021/07/04 12:45:50;;;;;;;5.43;2.50;;;;;;;;;;5029257;28;20032;-42
2021/07/04 12:48:17;;;;;;;23.58;15.07;;;;;;;;;;5029806;28;20025;-42
2021/07/04 12:50:45;;;;;;;15.00;10.50;;;;;;;;;;5029380;28;20056;-44
2021/07/04 12:53:12;;;;;;;4.15;3.72;;;;;;;;;;5029637;28;20025;-43
2021/07/04 12:55:39;;;;;;;2.33;2.13;;;;;;;;;;5044107;28;20040;-43
2021/07/04 12:58:25;;;;;;;2.30;2.10;;;;;;;;;;5029109;28;20854;-43
2021/07/04 13:00:52;;;;;;;4.45;3.53;;;;;;;;;;5029379;28;20033;-42
2021/07/04 13:03:36;;;;;;;5.35;3.90;;;;;;;;;;5029105;28;20032;-42
2021/07/04 13:06:03;;;;;;;42.63;31.38;;;;;;;;;;5029110;28;20070;-42
2021/07/04 13:08:29;;;;;;;7.25;5.18;;;;;;;;;;5029053;28;20124;-42
2021/07/04 13:10:55;;;;;;;60.35;37.95;;;;;;;;;;5028676;28;20937;-42
2021/07/04 13:13:21;;;;;;;53.42;33.85;;;;;;;;;;5028742;28;20045;-42
2021/07/04 13:15:47;;;;;;;97.70;63.28;;;;;;;;;;5028746;28;20556;-42
2021/07/04 13:18:26;;;;;;;14.52;10.18;;;;;;;;;;5028879;28;20017;-43
2021/07/04 13:20:52;;;;;;;95.95;56.25;;;;;;;;;;5028930;28;20041;-45
2021/07/04 13:23:18;;;;;;;27.35;18.67;;;;;;;;;;5028608;28;20025;-43
2021/07/04 13:25:45;;;;;;;62.20;29.65;;;;;;;;;;5028857;28;20149;-44
2021/07/04 13:28:14;;;;;;;13.63;8.50;;;;;;;;;;5028472;28;20028;-45
2021/07/04 13:30:44;;;;;;;69.32;42.35;;;;;;;;;;5027950;28;20757;-45
2021/07/04 13:33:10;;;;;;;8.63;6.70;;;;;;;;;;5028343;28;20110;-39
2021/07/04 13:35:36;;;;;;;122.70;86.47;;;;;;;;;;5028117;28;20025;-45
2021/07/04 13:38:02;;;;;;;63.80;40.83;;;;;;;;;;5027873;28;20029;-44
2021/07/04 13:40:29;;;;;;;62.13;40.33;;;;;;;;;;5027922;28;20025;-40
2021/07/04 13:42:56;;;;;;;100.05;69.63;;;;;;;;;;5028276;28;20114;-38
2021/07/04 13:45:53;;;;;;;7.10;5.43;;;;;;;;;;5027734;28;20026;-45
2021/07/04 13:48:23;;;;;;;2.42;2.22;;;;;;;;;;5001755;28;20046;-39
2021/07/04 13:50:54;;;;;;;4.38;3.50;;;;;;;;;;5002088;28;20228;-43
2021/07/04 13:53:21;;;;;;;57.03;36.05;;;;;;;;;;5001749;28;20044;-53
2021/07/04 13:55:47;;;;;;;50.10;31.02;;;;;;;;;;5001512;28;20034;-39
2021/07/04 13:58:14;;;;;;;49.65;30.33;;;;;;;;;;5001819;28;20042;-43
2021/07/04 14:00:41;;;;;;;22.02;11.38;;;;;;;;;;5001832;28;20053;-43
2021/07/04 14:03:08;;;;;;;12.50;4.63;;;;;;;;;;5001452;28;20136;-44
2021/07/04 14:05:34;;;;;;;17.25;7.95;;;;;;;;;;5001652;28;20568;-42
2021/07/04 14:08:01;;;;;;;11.68;4.18;;;;;;;;;;5000365;28;20061;-44
2021/07/04 14:10:27;;;;;;;4.35;3.70;;;;;;;;;;5001010;28;20040;-42
2021/07/04 14:12:53;;;;;;;36.85;19.52;;;;;;;;;;4999921;28;21079;-43
2021/07/04 14:15:19;;;;;;;13.65;8.30;;;;;;;;;;4999286;28;20080;-42
2021/07/04 14:17:45;;;;;;;38.72;21.35;;;;;;;;;;5000903;28;20144;-42
2021/07/04 14:20:12;;;;;;;16.35;8.63;;;;;;;;;;5000232;28;21338;-41
2021/07/04 14:22:39;;;;;;;15.60;8.00;;;;;;;;;;5000684;28;20029;-42
2021/07/04 14:25:06;;;;;;;6.57;3.17;;;;;;;;;;4983448;28;20056;-45
2021/07/04 14:27:32;;;;;;;26.23;17.45;;;;;;;;;;4984384;28;20061;-42
2021/07/04 14:29:58;;;;;;;28.17;17.10;;;;;;;;;;4984558;28;20022;-44
2021/07/04 14:32:25;;;;;;;6.68;4.50;;;;;;;;;;4984982;28;20085;-41
2021/07/04 14:34:51;;;;;;;8.65;5.45;;;;;;;;;;4984569;28;20063;-41
2021/07/04 14:37:17;;;;;;;2.90;2.60;;;;;;;;;;4984068;28;20458;-44
2021/07/04 14:39:44;;;;;;;4.88;3.00;;;;;;;;;;4984816;28;20026;-43